createdAt,value
2023-02-17T00:01:38.787Z,-0.67
2023-02-17T00:04:06.452Z,-0.72
2023-02-17T00:06:34.084Z,-0.74
2023-02-17T00:09:01.956Z,-0.77
2023-02-17T00:11:32.302Z,-0.76
2023-02-17T00:14:02.271Z,-0.79
2023-02-17T00:16:30.520Z,-0.79
2023-02-17T00:19:01.883Z,-0.79
2023-02-17T00:21:32.793Z,-0.67
2023-02-17T00:24:00.690Z,-0.63
2023-02-17T00:26:28.562Z,-0.57
2023-02-17T00:28:56.536Z,-0.53
2023-02-17T00:31:25.229Z,-0.38
2023-02-17T00:33:56.709Z,-0.32
2023-02-17T00:36:25.092Z,-0.35
2023-02-17T00:38:54.522Z,-0.36
2023-02-17T00:41:22.747Z,-0.41
2023-02-17T00:43:51.052Z,-0.40
2023-02-17T00:46:19.779Z,-0.36
2023-02-17T00:48:49.941Z,-0.28
2023-02-17T00:51:20.886Z,-0.21
2023-02-17T00:53:48.751Z,-0.04
2023-02-17T00:56:16.598Z,0.06
2023-02-17T00:58:44.420Z,0.09
2023-02-17T01:01:14.881Z,0.21
2023-02-17T01:03:44.597Z,0.44
2023-02-17T01:06:22.761Z,0.50
2023-02-17T01:08:50.540Z,0.66
2023-02-17T01:11:23.795Z,0.63
2023-02-17T01:13:51.472Z,0.70
2023-02-17T01:16:22.706Z,0.67
2023-02-17T01:18:50.717Z,0.65
2023-02-17T01:21:24.306Z,0.62
2023-02-17T01:23:54.268Z,0.71
2023-02-17T01:26:24.708Z,0.72
2023-02-17T01:28:56.307Z,0.72
2023-02-17T01:31:24.892Z,0.70
2023-02-17T01:33:52.524Z,0.72
2023-02-17T01:36:21.733Z,0.68
2023-02-17T01:38:50.935Z,0.93
2023-02-17T01:41:21.180Z,0.98
2023-02-17T01:44:11.506Z,1.00
2023-02-17T01:46:43.795Z,1.08
2023-02-17T01:49:30.401Z,1.17
2023-02-17T01:52:04.484Z,1.12
2023-02-17T01:54:42.340Z,1.16
2023-02-17T01:57:11.962Z,1.13
2023-02-17T01:59:39.954Z,1.08
2023-02-17T02:02:08.156Z,0.98
2023-02-17T02:04:41.774Z,0.91
2023-02-17T02:07:19.642Z,0.84
2023-02-17T02:09:56.138Z,0.79
2023-02-17T02:12:29.272Z,0.74
2023-02-17T02:15:01.785Z,0.70
2023-02-17T02:17:41.324Z,0.69
2023-02-17T02:20:09.550Z,0.64
2023-02-17T02:23:14.832Z,0.56
2023-02-17T02:26:16.691Z,0.60
2023-02-17T02:28:52.397Z,0.49
2023-02-17T02:31:25.873Z,0.42
2023-02-17T02:34:09.212Z,0.36
2023-02-17T02:37:03.211Z,0.26
2023-02-17T02:39:36.107Z,0.32
2023-02-17T02:42:11.064Z,0.22
2023-02-17T02:44:41.330Z,0.17
2023-02-17T02:47:37.847Z,0.18
2023-02-17T02:50:06.136Z,0.29
2023-02-17T02:52:58.141Z,0.44
2023-02-17T02:55:44.727Z,0.53
2023-02-17T02:58:19.719Z,0.53
2023-02-17T03:01:06.961Z,0.62
2023-02-17T03:03:40.284Z,0.75
2023-02-17T03:06:20.971Z,0.83
2023-02-17T03:09:04.088Z,0.94
2023-02-17T03:11:35.185Z,1.03
2023-02-17T03:14:09.778Z,1.06
2023-02-17T03:16:42.187Z,1.16
2023-02-17T03:19:12.164Z,1.09
2023-02-17T03:21:48.643Z,1.01
2023-02-17T03:24:18.910Z,0.94
2023-02-17T03:26:48.996Z,0.82
2023-02-17T03:29:16.809Z,0.87
2023-02-17T03:31:44.584Z,0.87
2023-02-17T03:34:14.605Z,0.81
2023-02-17T03:36:42.231Z,0.80
2023-02-17T03:39:09.873Z,0.86
2023-02-17T03:41:38.059Z,0.77
2023-02-17T03:44:08.641Z,0.69
2023-02-17T03:46:36.666Z,0.72
2023-02-17T03:49:09.265Z,0.74
2023-02-17T03:51:36.892Z,0.68
2023-02-17T03:54:04.999Z,0.64
2023-02-17T03:56:33.233Z,0.60
2023-02-17T03:59:01.016Z,0.64
2023-02-17T04:01:28.740Z,0.68
2023-02-17T04:03:58.900Z,0.60
2023-02-17T04:06:26.765Z,0.64
2023-02-17T04:08:54.416Z,0.58
2023-02-17T04:11:22.138Z,0.52
2023-02-17T04:13:54.372Z,0.47
2023-02-17T04:16:23.441Z,0.40
2023-02-17T04:18:53.893Z,0.36
2023-02-17T04:21:21.536Z,0.29
2023-02-17T04:23:49.278Z,0.26
2023-02-17T04:26:16.897Z,0.30
2023-02-17T04:28:45.105Z,0.28
2023-02-17T04:31:15.400Z,0.39
2023-02-17T04:33:43.094Z,0.36
2023-02-17T04:36:11.568Z,0.41
2023-02-17T04:38:42.035Z,0.45
2023-02-17T04:41:09.629Z,0.48
2023-02-17T04:43:39.709Z,0.45
2023-02-17T04:46:07.768Z,0.49
2023-02-17T04:48:35.583Z,0.47
2023-02-17T04:51:03.199Z,0.45
2023-02-17T04:53:33.382Z,0.41
2023-02-17T04:56:00.983Z,0.39
2023-02-17T04:58:28.680Z,0.37
2023-02-17T05:01:00.282Z,0.35
2023-02-17T05:03:27.919Z,0.34
2023-02-17T05:05:55.690Z,0.36
2023-02-17T05:08:23.274Z,0.40
2023-02-17T05:10:53.938Z,0.44
2023-02-17T05:13:21.572Z,0.46
2023-02-17T05:15:49.283Z,0.51
2023-02-17T05:18:16.929Z,0.58
2023-02-17T05:20:44.568Z,0.67
2023-02-17T05:23:12.244Z,0.72
2023-02-17T05:25:41.143Z,0.85
2023-02-17T05:28:08.755Z,0.95
2023-02-17T05:30:38.528Z,1.06
2023-02-17T05:33:08.602Z,1.16
2023-02-17T05:35:40.212Z,1.24
2023-02-17T05:38:07.804Z,1.32
2023-02-17T05:40:35.400Z,1.35
2023-02-17T05:43:03.093Z,1.43
2023-02-17T05:45:30.777Z,1.59
2023-02-17T05:47:58.398Z,1.68
2023-02-17T05:50:26.290Z,1.76
2023-02-17T05:52:56.257Z,1.82
2023-02-17T05:55:23.896Z,1.92
2023-02-17T05:57:51.508Z,2.00
2023-02-17T06:00:19.387Z,2.03
2023-02-17T06:02:47.018Z,2.11
2023-02-17T06:05:15.179Z,2.20
2023-02-17T06:07:43.936Z,2.25
2023-02-17T06:10:12.061Z,2.36
2023-02-17T06:12:39.695Z,2.41
2023-02-17T06:15:10.198Z,2.42
2023-02-17T06:17:39.018Z,2.47
2023-02-17T06:20:07.827Z,2.50
2023-02-17T06:22:39.823Z,2.54
2023-02-17T06:25:07.876Z,2.61
2023-02-17T06:27:35.906Z,2.67
2023-02-17T06:30:06.627Z,2.75
2023-02-17T06:32:34.753Z,2.83
2023-02-17T06:35:02.483Z,2.99
2023-02-17T06:37:30.437Z,3.17
2023-02-17T06:39:59.066Z,3.30
2023-02-17T06:42:26.860Z,3.45
2023-02-17T06:44:54.970Z,3.54
2023-02-17T06:47:22.599Z,3.66
2023-02-17T06:49:50.808Z,3.82
2023-02-17T06:52:18.599Z,3.96
2023-02-17T06:54:47.259Z,4.08
2023-02-17T06:57:14.909Z,4.26
2023-02-17T06:59:42.510Z,4.39
2023-02-17T07:02:16.379Z,4.45
2023-02-17T07:04:44.547Z,4.61
2023-02-17T07:07:12.751Z,4.67
2023-02-17T07:09:44.036Z,4.68
2023-02-17T07:12:11.771Z,4.72
2023-02-17T07:14:39.499Z,4.79
2023-02-17T07:17:07.135Z,4.88
2023-02-17T07:19:34.758Z,4.95
2023-02-17T07:22:02.534Z,5.02
2023-02-17T07:24:30.339Z,5.07
2023-02-17T07:26:58.020Z,5.14
2023-02-17T07:29:25.678Z,5.22
2023-02-17T07:31:55.432Z,5.30
2023-02-17T07:34:23.280Z,5.32
2023-02-17T07:36:51.157Z,5.35
2023-02-17T07:39:19.782Z,5.48
2023-02-17T07:41:49.902Z,5.55
2023-02-17T07:44:17.517Z,5.58
2023-02-17T07:46:45.157Z,5.66
2023-02-17T07:49:14.829Z,5.73
2023-02-17T07:51:42.611Z,5.83
2023-02-17T07:54:14.316Z,5.94
2023-02-17T07:56:42.058Z,6.08
2023-02-17T07:59:16.248Z,6.24
2023-02-17T08:01:44.230Z,6.35
2023-02-17T08:04:14.376Z,6.53
2023-02-17T08:06:42.013Z,6.66
2023-02-17T08:09:29.744Z,6.85
2023-02-17T08:12:15.314Z,6.96
2023-02-17T08:14:43.015Z,7.07
2023-02-17T08:17:10.686Z,7.25
2023-02-17T08:19:48.165Z,7.41
2023-02-17T08:22:19.751Z,7.76
2023-02-17T08:24:47.796Z,8.62
2023-02-17T08:27:16.653Z,8.83
2023-02-17T08:29:45.096Z,9.09
2023-02-17T08:32:14.170Z,9.46
2023-02-17T08:34:41.999Z,9.55
2023-02-17T08:37:12.824Z,9.65
2023-02-17T08:39:40.581Z,9.75
2023-02-17T08:42:08.238Z,9.81
2023-02-17T08:44:37.704Z,9.83
2023-02-17T08:47:06.384Z,9.85
2023-02-17T08:49:37.030Z,9.84
2023-02-17T08:52:05.434Z,9.75
2023-02-17T08:54:35.589Z,9.66
2023-02-17T08:57:03.469Z,9.48
2023-02-17T08:59:31.316Z,9.28
2023-02-17T09:01:59.044Z,9.28
2023-02-17T09:04:27.057Z,9.50
2023-02-17T09:06:57.285Z,9.60
2023-02-17T09:09:28.883Z,9.79
2023-02-17T09:11:58.705Z,9.95
2023-02-17T09:14:26.678Z,10.34
2023-02-17T09:16:55.577Z,10.75
2023-02-17T09:19:25.221Z,10.87
2023-02-17T09:21:53.060Z,11.90
2023-02-17T09:24:20.858Z,12.90
2023-02-17T09:26:48.602Z,13.29
2023-02-17T09:29:16.199Z,13.20
2023-02-17T09:31:47.778Z,13.60
2023-02-17T09:34:15.608Z,13.49
2023-02-17T09:36:45.822Z,13.35
2023-02-17T09:39:14.958Z,12.68
2023-02-17T09:41:47.748Z,12.40
2023-02-17T09:44:20.118Z,11.99
2023-02-17T09:47:08.402Z,11.45
2023-02-17T09:50:05.120Z,11.35
2023-02-17T09:53:02.380Z,11.37
2023-02-17T09:55:34.646Z,11.64
2023-02-17T09:58:28.013Z,11.43
2023-02-17T10:01:02.336Z,11.17
2023-02-17T10:03:43.178Z,11.01
2023-02-17T10:06:10.930Z,10.71
2023-02-17T10:08:57.499Z,10.67
2023-02-17T10:11:40.658Z,10.71
2023-02-17T10:14:18.465Z,10.72
2023-02-17T10:17:36.555Z,10.64
2023-02-17T10:20:11.932Z,10.66
2023-02-17T10:22:41.120Z,10.88
2023-02-17T10:25:21.243Z,10.97
2023-02-17T10:28:05.047Z,10.95
2023-02-17T10:30:46.178Z,10.90
2023-02-17T10:33:18.424Z,11.08
2023-02-17T10:36:09.095Z,11.20
2023-02-17T10:38:53.571Z,11.06
2023-02-17T10:41:29.050Z,11.20
2023-02-17T10:43:57.102Z,10.87
2023-02-17T10:46:31.254Z,10.97
2023-02-17T10:49:02.361Z,11.11
2023-02-17T10:51:32.473Z,10.89
2023-02-17T10:54:22.926Z,10.77
2023-02-17T10:57:06.627Z,10.77
2023-02-17T10:59:43.881Z,10.78
2023-02-17T11:02:23.026Z,10.84
2023-02-17T11:04:55.025Z,10.85
2023-02-17T11:07:35.193Z,10.84
2023-02-17T11:10:20.586Z,10.71
2023-02-17T11:12:49.786Z,10.70
2023-02-17T11:15:28.087Z,10.85
2023-02-17T11:18:01.537Z,11.10
2023-02-17T11:20:35.720Z,11.20
2023-02-17T11:23:25.299Z,11.15
2023-02-17T11:26:02.242Z,11.11
2023-02-17T11:28:30.642Z,11.21
2023-02-17T11:31:03.123Z,11.18
2023-02-17T11:33:42.502Z,11.22
2023-02-17T11:36:24.616Z,11.24
2023-02-17T11:38:52.574Z,11.36
2023-02-17T11:41:20.889Z,11.47
2023-02-17T11:43:58.618Z,11.53
2023-02-17T11:46:29.736Z,11.56
2023-02-17T11:49:06.560Z,11.51
2023-02-17T11:51:59.490Z,11.58
2023-02-17T11:55:01.383Z,11.55
2023-02-17T11:57:29.411Z,11.65
2023-02-17T12:00:22.750Z,11.43
2023-02-17T12:03:22.159Z,11.41
2023-02-17T12:06:25.121Z,11.54
2023-02-17T12:09:24.294Z,11.15
2023-02-17T12:12:00.993Z,11.03
2023-02-17T12:15:04.276Z,10.85
2023-02-17T12:17:53.330Z,10.67
2023-02-17T12:20:49.826Z,10.74
2023-02-17T12:23:20.119Z,10.79
2023-02-17T12:26:32.085Z,10.96
2023-02-17T12:29:24.171Z,10.83
2023-02-17T12:32:38.112Z,10.85
2023-02-17T12:35:53.168Z,10.99
2023-02-17T12:38:31.699Z,11.12
2023-02-17T12:41:17.655Z,11.32
2023-02-17T12:43:50.756Z,11.65
2023-02-17T12:46:30.341Z,11.84
2023-02-17T12:49:05.978Z,11.75
2023-02-17T12:51:41.999Z,11.99
2023-02-17T12:54:25.621Z,11.98
2023-02-17T12:57:11.254Z,12.13
2023-02-17T12:59:46.552Z,12.26
2023-02-17T13:02:17.010Z,12.32
2023-02-17T13:04:47.093Z,12.26
2023-02-17T13:07:45.430Z,12.12
2023-02-17T13:10:28.075Z,11.86
2023-02-17T13:13:01.398Z,11.84
2023-02-17T13:15:39.857Z,11.76
2023-02-17T13:18:12.377Z,11.65
2023-02-17T13:20:45.782Z,11.59
2023-02-17T13:23:27.520Z,11.54
2023-02-17T13:26:16.872Z,11.38
2023-02-17T13:28:45.410Z,11.21
2023-02-17T13:31:21.091Z,11.11
2023-02-17T13:33:52.367Z,11.13
2023-02-17T13:36:31.466Z,11.11
2023-02-17T13:39:03.050Z,11.08
2023-02-17T13:41:44.302Z,11.10
2023-02-17T13:44:30.625Z,11.17
2023-02-17T13:47:23.377Z,11.32
2023-02-17T13:49:56.881Z,11.44
2023-02-17T13:52:27.686Z,11.58
2023-02-17T13:54:58.344Z,11.69
2023-02-17T13:57:31.164Z,11.76
2023-02-17T14:00:09.173Z,11.84
2023-02-17T14:02:40.499Z,11.87
2023-02-17T14:05:20.257Z,11.76
2023-02-17T14:07:49.690Z,11.86
2023-02-17T14:10:24.840Z,11.88
2023-02-17T14:12:56.292Z,11.93
2023-02-17T14:15:27.453Z,11.84
2023-02-17T14:17:56.896Z,11.70
2023-02-17T14:20:37.708Z,11.71
2023-02-17T14:23:14.510Z,11.58
2023-02-17T14:25:47.251Z,11.48
2023-02-17T14:28:30.608Z,11.38
2023-02-17T14:31:09.618Z,11.27
2023-02-17T14:33:40.517Z,11.27
2023-02-17T14:36:14.090Z,11.24
2023-02-17T14:38:42.988Z,11.19
2023-02-17T14:41:13.268Z,11.16
2023-02-17T14:43:40.916Z,11.06
2023-02-17T14:46:08.845Z,10.97
2023-02-17T14:48:40.487Z,10.86
2023-02-17T14:51:16.731Z,10.79
2023-02-17T14:53:46.988Z,10.77
2023-02-17T14:56:35.290Z,10.67
2023-02-17T14:59:03.213Z,10.71
2023-02-17T15:01:33.445Z,10.67
2023-02-17T15:04:02.881Z,10.65
2023-02-17T15:06:43.458Z,10.65
2023-02-17T15:09:16.906Z,10.65
2023-02-17T15:11:49.013Z,10.62
2023-02-17T15:14:20.215Z,10.62
2023-02-17T15:16:49.149Z,10.61
2023-02-17T15:19:18.692Z,10.61
2023-02-17T15:21:51.651Z,10.56
2023-02-17T15:24:23.352Z,10.55
2023-02-17T15:26:51.183Z,10.51
2023-02-17T15:29:22.152Z,10.48
2023-02-17T15:31:51.502Z,10.44
2023-02-17T15:34:22.356Z,10.40
2023-02-17T15:36:52.645Z,10.38
2023-02-17T15:39:22.536Z,10.35
2023-02-17T15:41:53.162Z,10.23
2023-02-17T15:44:26.864Z,10.26
2023-02-17T15:46:57.295Z,10.20
2023-02-17T15:49:25.536Z,10.21
2023-02-17T15:51:55.723Z,10.14
2023-02-17T15:54:24.547Z,10.07
2023-02-17T15:56:55.368Z,9.94
2023-02-17T15:59:27.189Z,9.87
2023-02-17T16:01:57.875Z,9.78
2023-02-17T16:04:29.377Z,9.69
2023-02-17T16:06:58.729Z,9.64
2023-02-17T16:09:26.407Z,9.65
2023-02-17T16:11:57.434Z,9.65
2023-02-17T16:14:29.622Z,9.58
2023-02-17T16:16:59.767Z,9.54
2023-02-17T16:19:30.018Z,9.46
2023-02-17T16:21:57.669Z,9.37
2023-02-17T16:24:30.011Z,9.31
2023-02-17T16:27:00.495Z,9.15
2023-02-17T16:29:28.323Z,9.08
2023-02-17T16:31:56.468Z,9.01
2023-02-17T16:34:25.933Z,8.92
2023-02-17T16:36:58.749Z,8.89
2023-02-17T16:39:28.953Z,8.77
2023-02-17T16:41:56.719Z,8.66
2023-02-17T16:44:24.685Z,8.56
2023-02-17T16:46:57.795Z,8.48
2023-02-17T16:49:33.280Z,8.47
2023-02-17T16:52:03.215Z,8.44
2023-02-17T16:54:32.374Z,8.35
2023-02-17T16:57:01.087Z,8.21
2023-02-17T16:59:31.009Z,8.20
2023-02-17T17:01:58.880Z,8.16
2023-02-17T17:04:26.641Z,8.07
2023-02-17T17:06:54.348Z,7.97
2023-02-17T17:09:25.427Z,7.90
2023-02-17T17:11:53.317Z,7.80
2023-02-17T17:14:23.501Z,7.76
2023-02-17T17:16:56.557Z,7.68
2023-02-17T17:19:25.699Z,7.63
2023-02-17T17:21:54.233Z,7.52
2023-02-17T17:24:25.196Z,7.41
2023-02-17T17:26:52.798Z,7.32
2023-02-17T17:29:23.373Z,7.21
2023-02-17T17:31:51.180Z,7.08
2023-02-17T17:34:20.030Z,6.98
2023-02-17T17:36:50.897Z,6.87
2023-02-17T17:39:21.991Z,6.79
2023-02-17T17:41:53.744Z,6.69
2023-02-17T17:44:21.886Z,6.63
2023-02-17T17:46:51.883Z,6.55
2023-02-17T17:49:19.553Z,6.46
2023-02-17T17:51:47.468Z,6.40
2023-02-17T17:54:16.560Z,6.36
2023-02-17T17:56:44.741Z,6.31
2023-02-17T17:59:13.649Z,6.30
2023-02-17T18:01:45.136Z,6.30
2023-02-17T18:04:13.553Z,6.28
2023-02-17T18:06:51.773Z,6.24
2023-02-17T18:09:31.773Z,6.19
2023-02-17T18:12:05.557Z,6.14
2023-02-17T18:14:34.377Z,6.11
2023-02-17T18:17:02.183Z,6.11
2023-02-17T18:19:31.461Z,6.10
2023-02-17T18:21:59.188Z,6.10
2023-02-17T18:24:26.972Z,6.13
2023-02-17T18:26:54.753Z,6.24
2023-02-17T18:29:22.750Z,6.29
2023-02-17T18:31:53.186Z,6.34
2023-02-17T18:34:23.010Z,6.41
2023-02-17T18:36:50.609Z,6.49
2023-02-17T18:39:18.296Z,6.52
2023-02-17T18:41:48.490Z,6.51
2023-02-17T18:44:18.923Z,6.63
2023-02-17T18:46:47.986Z,6.66
2023-02-17T18:49:15.736Z,6.69
2023-02-17T18:51:45.558Z,6.71
2023-02-17T18:54:14.119Z,6.70
2023-02-17T18:56:41.851Z,6.69
2023-02-17T18:59:12.238Z,6.68
2023-02-17T19:01:41.003Z,6.71
2023-02-17T19:04:09.721Z,6.70
2023-02-17T19:06:40.467Z,6.69
2023-02-17T19:09:08.398Z,6.65
2023-02-17T19:11:36.623Z,6.65
2023-02-17T19:14:05.735Z,6.67
2023-02-17T19:16:35.959Z,6.71
2023-02-17T19:19:04.481Z,6.69
2023-02-17T19:21:35.939Z,6.72
2023-02-17T19:24:06.552Z,6.71
2023-02-17T19:26:34.540Z,6.72
2023-02-17T19:29:02.152Z,6.75
2023-02-17T19:31:32.319Z,6.77
2023-02-17T19:34:00.088Z,6.79
2023-02-17T19:36:27.798Z,6.80
2023-02-17T19:38:57.941Z,6.79
2023-02-17T19:41:26.167Z,6.78
2023-02-17T19:43:54.011Z,6.76
2023-02-17T19:46:23.112Z,6.76
2023-02-17T19:48:50.933Z,6.75
2023-02-17T19:51:18.660Z,6.75
2023-02-17T19:53:46.321Z,6.79
2023-02-17T19:56:14.209Z,6.79
2023-02-17T19:58:44.002Z,6.82
2023-02-17T20:01:18.029Z,6.81
2023-02-17T20:03:47.324Z,6.82
2023-02-17T20:06:21.065Z,6.77
2023-02-17T20:08:54.457Z,6.75
2023-02-17T20:11:25.562Z,6.74
2023-02-17T20:13:57.545Z,6.74
2023-02-17T20:16:25.361Z,6.71
2023-02-17T20:18:55.184Z,6.62
2023-02-17T20:21:26.053Z,6.57
2023-02-17T20:23:57.313Z,6.47
2023-02-17T20:26:30.117Z,6.43
2023-02-17T20:28:59.040Z,6.43
2023-02-17T20:31:27.742Z,6.38
2023-02-17T20:33:55.542Z,6.39
2023-02-17T20:36:23.220Z,6.41
2023-02-17T20:38:51.519Z,6.47
2023-02-17T20:41:24.531Z,6.53
2023-02-17T20:43:53.244Z,6.62
2023-02-17T20:46:29.692Z,6.80
2023-02-17T20:48:57.494Z,6.94
2023-02-17T20:51:27.616Z,7.38
2023-02-17T20:53:55.340Z,8.00
2023-02-17T20:56:25.283Z,8.32
2023-02-17T20:58:54.338Z,8.59
2023-02-17T21:01:25.740Z,8.96
2023-02-17T21:03:53.377Z,9.20
2023-02-17T21:06:30.007Z,9.62
2023-02-17T21:09:01.077Z,9.92
2023-02-17T21:11:29.957Z,10.19
2023-02-17T21:14:00.906Z,10.27
2023-02-17T21:16:31.341Z,10.31
2023-02-17T21:19:01.181Z,10.41
2023-02-17T21:21:29.919Z,10.30
2023-02-17T21:23:58.649Z,10.32
2023-02-17T21:26:27.547Z,10.32
2023-02-17T21:28:55.518Z,10.35
2023-02-17T21:31:23.409Z,10.36
2023-02-17T21:33:51.101Z,10.32
2023-02-17T21:36:19.743Z,10.27
2023-02-17T21:38:48.374Z,10.30
2023-02-17T21:41:18.926Z,10.31
2023-02-17T21:44:04.925Z,10.31
2023-02-17T21:46:32.863Z,10.28
2023-02-17T21:49:02.214Z,10.25
2023-02-17T21:51:38.494Z,10.28
2023-02-17T21:54:08.539Z,10.26
2023-02-17T21:56:36.676Z,10.24
2023-02-17T21:59:05.069Z,10.22
2023-02-17T22:01:33.013Z,10.23
2023-02-17T22:04:04.186Z,10.22
2023-02-17T22:06:37.579Z,10.21
2023-02-17T22:09:06.940Z,10.22
2023-02-17T22:11:37.690Z,10.14
2023-02-17T22:14:11.088Z,10.12
2023-02-17T22:16:40.624Z,10.13
2023-02-17T22:19:10.682Z,10.11
2023-02-17T22:21:39.640Z,10.13
2023-02-17T22:24:09.929Z,10.17
2023-02-17T22:26:37.910Z,10.14
2023-02-17T22:29:06.583Z,10.13
2023-02-17T22:31:36.811Z,10.15
2023-02-17T22:34:07.833Z,10.15
2023-02-17T22:36:40.938Z,10.12
2023-02-17T22:39:10.050Z,10.11
2023-02-17T22:41:38.863Z,10.07
2023-02-17T22:44:06.603Z,10.02
2023-02-17T22:46:37.011Z,9.99
2023-02-17T22:49:04.662Z,9.94
2023-02-17T22:51:36.773Z,9.92
2023-02-17T22:54:07.880Z,9.88
2023-02-17T22:56:35.663Z,9.87
2023-02-17T22:59:04.921Z,9.83
2023-02-17T23:01:35.239Z,9.84
2023-02-17T23:04:03.367Z,9.89
2023-02-17T23:06:38.784Z,9.89
2023-02-17T23:09:11.337Z,9.84
2023-02-17T23:11:54.838Z,9.85
2023-02-17T23:14:34.896Z,9.83
2023-02-17T23:17:08.592Z,9.83
2023-02-17T23:19:40.366Z,9.78
2023-02-17T23:22:11.188Z,9.84
2023-02-17T23:24:44.357Z,9.80
2023-02-17T23:27:17.615Z,9.81
2023-02-17T23:29:45.255Z,9.82
2023-02-17T23:32:15.230Z,9.85
2023-02-17T23:34:45.817Z,9.85
2023-02-17T23:37:13.781Z,9.92
2023-02-17T23:39:43.697Z,9.93
2023-02-17T23:42:13.773Z,10.06
2023-02-17T23:44:44.605Z,10.05
2023-02-17T23:47:12.878Z,10.11
2023-02-17T23:49:40.528Z,10.11
2023-02-17T23:52:11.180Z,10.10
2023-02-17T23:54:44.415Z,10.06
2023-02-17T23:57:12.103Z,10.10
2023-02-17T23:59:41.217Z,10.03
